Main page
METAR-TAF:

METAR-TAF

Airports :

Berlin Regional Airport

Berlin, New Hampshire, United States

latitude: 44-34-34N, longitude: 071-10-43W, elevation: 1158 ft

Current weather observation

The report was made 44 minutes ago, at 16:11 UTC
Wind 3 mph from variable directions
Temperature 34°F
Humidity 80%
Pressure 29.50 in. Hg
Visibility: 10 miles
Few clouds at a height of 1700 ft
Broken clouds at a height of 2400 ft
Overcast at a height of 3200 ft

METAR: KBML 051611Z AUTO VRB03KT 10SM FEW017 BKN024 OVC032 01/M02 A2950 RMK AO2 T00111022

Time: 11:55 (16:55 UTC)


TAF: missing

Weather observations and forecasts of more than 4000 airports (METAR and TAF reports).

The available stations are represented by yellow and red dots on the map.

Hover mouse over dot to see the name of the station.

Then click to see weather observations and forecasts.

To change the map : click on the green buttons with a black cross to zoom in, on the green button with a dash to zoom out, or on the green arrows for adjacent maps.


METAR-TAF: